createdAt,value
2024-01-27T00:00:07.750Z,71.26
2024-01-27T00:01:07.793Z,71.47
2024-01-27T00:02:07.711Z,71.67
2024-01-27T00:03:07.696Z,71.98
2024-01-27T00:04:07.667Z,72.29
2024-01-27T00:05:07.815Z,72.50
2024-01-27T00:06:07.779Z,72.91
2024-01-27T00:07:08.008Z,72.91
2024-01-27T00:08:07.653Z,72.91
2024-01-27T00:09:07.707Z,72.91
2024-01-27T00:10:07.602Z,72.81
2024-01-27T00:11:07.638Z,72.81
2024-01-27T00:12:07.612Z,72.91
2024-01-27T00:13:07.566Z,73.02
2024-01-27T00:14:07.561Z,72.91
2024-01-27T00:15:07.614Z,73.02
2024-01-27T00:16:07.582Z,73.12
2024-01-27T00:17:07.512Z,73.33
2024-01-27T00:18:07.583Z,73.02
2024-01-27T00:19:07.625Z,73.12
2024-01-27T00:20:07.512Z,73.22
2024-01-27T00:21:07.499Z,73.22
2024-01-27T00:22:07.492Z,73.22
2024-01-27T00:23:07.451Z,73.12
2024-01-27T00:24:07.509Z,72.91
2024-01-27T00:25:07.412Z,72.91
2024-01-27T00:26:07.413Z,72.91
2024-01-27T00:27:07.520Z,73.12
2024-01-27T00:28:07.424Z,73.12
2024-01-27T00:29:07.389Z,73.12
2024-01-27T00:30:07.621Z,73.22
2024-01-27T00:31:07.394Z,73.33
2024-01-27T00:32:07.393Z,73.54
2024-01-27T00:33:07.421Z,73.64
2024-01-27T00:34:07.442Z,73.64
2024-01-27T00:35:07.324Z,73.64
2024-01-27T00:36:07.374Z,73.71
2024-01-27T00:37:07.323Z,73.91
2024-01-27T00:38:07.319Z,73.91
2024-01-27T00:39:07.341Z,73.91
2024-01-27T00:40:07.267Z,74.02
2024-01-27T00:41:07.227Z,74.02
2024-01-27T00:42:07.272Z,74.02
2024-01-27T00:43:07.252Z,74.02
2024-01-27T00:44:07.217Z,74.02
2024-01-27T00:45:07.263Z,74.02
2024-01-27T00:46:07.193Z,74.22
2024-01-27T00:47:07.179Z,74.46
2024-01-27T00:48:07.241Z,74.67
2024-01-27T00:49:07.369Z,74.88
2024-01-27T00:50:07.179Z,74.98
2024-01-27T00:51:07.200Z,75.29
2024-01-27T00:52:07.130Z,74.98
2024-01-27T00:53:07.111Z,74.88
2024-01-27T00:54:07.193Z,74.88
2024-01-27T00:55:07.112Z,75.09
2024-01-27T00:56:07.065Z,75.22
2024-01-27T00:57:07.153Z,75.22
2024-01-27T00:58:07.056Z,75.09
2024-01-27T00:59:07.109Z,74.81
2024-01-27T01:00:07.077Z,74.50
2024-01-27T01:01:07.058Z,74.60
2024-01-27T01:02:06.993Z,74.60
2024-01-27T01:03:07.031Z,74.60
2024-01-27T01:04:07.019Z,74.29
2024-01-27T01:05:07.020Z,74.29
2024-01-27T01:06:07.080Z,73.98
2024-01-27T01:07:07.004Z,73.88
2024-01-27T01:08:06.919Z,73.67
2024-01-27T01:09:06.972Z,73.57
2024-01-27T01:10:06.946Z,73.67
2024-01-27T01:11:06.888Z,73.67
2024-01-27T01:12:06.928Z,73.46
2024-01-27T01:13:06.886Z,73.25
2024-01-27T01:14:06.913Z,73.15
2024-01-27T01:15:06.902Z,73.15
2024-01-27T01:16:06.866Z,73.25
2024-01-27T01:17:06.818Z,73.08
2024-01-27T01:18:06.895Z,72.56
2024-01-27T01:19:06.899Z,72.36
2024-01-27T01:20:06.857Z,72.46
2024-01-27T01:21:06.906Z,72.56
2024-01-27T01:22:08.987Z,72.67
2024-01-27T01:23:06.779Z,72.15
2024-01-27T01:24:06.819Z,71.84
2024-01-27T01:25:06.773Z,71.94
2024-01-27T01:26:06.748Z,71.94
2024-01-27T01:27:06.769Z,71.94
2024-01-27T01:28:06.737Z,71.73
2024-01-27T01:29:06.696Z,71.43
2024-01-27T01:30:06.737Z,71.22
2024-01-27T01:31:06.701Z,71.22
2024-01-27T01:32:06.686Z,71.33
2024-01-27T01:33:06.816Z,71.33
2024-01-27T01:34:06.685Z,71.01
2024-01-27T01:35:06.632Z,70.91
2024-01-27T01:36:06.652Z,71.01
2024-01-27T01:37:06.615Z,71.01
2024-01-27T01:38:06.603Z,71.12
2024-01-27T01:39:06.661Z,71.22
2024-01-27T01:40:06.573Z,71.22
2024-01-27T01:41:06.595Z,70.50
2024-01-27T01:42:06.638Z,70.29
2024-01-27T01:43:06.546Z,70.39
2024-01-27T01:44:06.567Z,70.08
2024-01-27T01:45:06.537Z,69.87
2024-01-27T01:46:06.518Z,69.67
2024-01-27T01:47:06.496Z,69.67
2024-01-27T01:48:06.659Z,69.35
2024-01-27T01:49:06.665Z,69.46
2024-01-27T01:50:06.480Z,69.46
2024-01-27T01:51:06.489Z,69.22
2024-01-27T01:52:06.458Z,69.12
2024-01-27T01:53:06.440Z,69.12
2024-01-27T01:54:06.460Z,69.32
2024-01-27T01:55:06.412Z,69.01
2024-01-27T01:56:06.382Z,69.22
2024-01-27T01:57:06.405Z,69.01
2024-01-27T01:58:06.375Z,68.80
2024-01-27T01:59:06.367Z,68.80
2024-01-27T02:00:06.369Z,68.70
2024-01-27T02:01:06.431Z,68.49
2024-01-27T02:02:06.309Z,68.40
2024-01-27T02:03:06.343Z,68.19
2024-01-27T02:04:06.349Z,68.15
2024-01-27T02:05:06.272Z,68.36
2024-01-27T02:06:06.391Z,68.67
2024-01-27T02:07:06.306Z,68.60
2024-01-27T02:08:06.280Z,68.29
2024-01-27T02:09:06.310Z,68.40
2024-01-27T02:10:06.236Z,68.40
2024-01-27T02:11:06.209Z,68.80
2024-01-27T02:12:06.288Z,68.91
2024-01-27T02:13:06.219Z,68.60
2024-01-27T02:14:06.203Z,68.40
2024-01-27T02:15:06.245Z,68.29
2024-01-27T02:16:06.202Z,68.08
2024-01-27T02:17:06.217Z,68.40
2024-01-27T02:18:06.315Z,68.19
2024-01-27T02:19:06.256Z,67.88
2024-01-27T02:20:06.099Z,67.98
2024-01-27T02:21:06.135Z,68.19
2024-01-27T02:22:06.124Z,68.08
2024-01-27T02:23:06.081Z,68.29
2024-01-27T02:24:06.159Z,68.29
2024-01-27T02:25:06.063Z,68.19
2024-01-27T02:26:06.028Z,68.49
2024-01-27T02:27:06.070Z,68.29
2024-01-27T02:28:06.030Z,68.19
2024-01-27T02:29:06.041Z,68.22
2024-01-27T02:30:06.077Z,68.43
2024-01-27T02:31:06.012Z,68.53
2024-01-27T02:32:05.954Z,68.63
2024-01-27T02:33:06.071Z,68.84
2024-01-27T02:34:06.336Z,68.74
2024-01-27T02:35:05.977Z,68.84
2024-01-27T02:36:05.974Z,68.84
2024-01-27T02:37:05.922Z,69.04
2024-01-27T02:38:05.945Z,69.08
2024-01-27T02:39:05.971Z,69.29
2024-01-27T02:40:05.922Z,69.29
2024-01-27T02:41:05.857Z,69.29
2024-01-27T02:42:05.909Z,69.18
2024-01-27T02:43:05.837Z,69.39
2024-01-27T02:44:05.876Z,69.49
2024-01-27T02:45:05.898Z,69.39
2024-01-27T02:46:05.803Z,69.39
2024-01-27T02:47:05.853Z,69.39
2024-01-27T02:48:05.904Z,69.60
2024-01-27T02:49:05.866Z,69.60
2024-01-27T02:50:05.760Z,69.49
2024-01-27T02:51:05.787Z,69.49
2024-01-27T02:52:05.738Z,69.80
2024-01-27T02:53:05.754Z,69.94
2024-01-27T02:54:05.717Z,70.25
2024-01-27T02:55:05.744Z,70.25
2024-01-27T02:56:05.674Z,70.04
2024-01-27T02:57:05.791Z,69.84
2024-01-27T02:58:05.722Z,69.73
2024-01-27T02:59:05.696Z,69.73
2024-01-27T03:00:05.665Z,69.53
2024-01-27T03:01:05.673Z,69.63
2024-01-27T03:02:05.655Z,69.63
2024-01-27T03:03:05.722Z,69.53
2024-01-27T03:04:05.636Z,69.73
2024-01-27T03:05:05.694Z,69.73
2024-01-27T03:06:05.791Z,69.73
2024-01-27T03:07:05.564Z,69.84
2024-01-27T03:08:05.562Z,69.84
2024-01-27T03:09:05.575Z,70.04
2024-01-27T03:10:05.509Z,70.25
2024-01-27T03:11:05.564Z,70.36
2024-01-27T03:12:05.547Z,70.46
2024-01-27T03:13:05.512Z,70.46
2024-01-27T03:14:05.524Z,70.25
2024-01-27T03:15:05.510Z,70.15
2024-01-27T03:16:05.476Z,70.04
2024-01-27T03:17:05.460Z,70.15
2024-01-27T03:18:05.550Z,70.28
2024-01-27T03:19:05.511Z,70.49
2024-01-27T03:20:05.423Z,70.80
2024-01-27T03:21:05.472Z,70.80
2024-01-27T03:22:05.389Z,70.90
2024-01-27T03:23:05.365Z,70.90
2024-01-27T03:24:05.450Z,71.01
2024-01-27T03:25:05.349Z,71.01
2024-01-27T03:26:05.463Z,71.22
2024-01-27T03:27:05.433Z,71.32
2024-01-27T03:28:05.327Z,71.32
2024-01-27T03:29:05.328Z,71.22
2024-01-27T03:30:05.350Z,71.22
2024-01-27T03:31:05.336Z,71.11
2024-01-27T03:32:05.292Z,71.22
2024-01-27T03:33:05.330Z,71.32
2024-01-27T03:34:05.382Z,71.32
2024-01-27T03:35:05.220Z,71.11
2024-01-27T03:36:05.251Z,71.01
2024-01-27T03:37:05.278Z,71.01
2024-01-27T03:38:05.251Z,71.01
2024-01-27T03:39:05.367Z,71.22
2024-01-27T03:40:05.181Z,71.32
2024-01-27T03:41:05.166Z,70.90
2024-01-27T03:42:05.191Z,70.90
2024-01-27T03:43:05.180Z,71.01
2024-01-27T03:44:05.141Z,71.01
2024-01-27T03:45:05.186Z,70.90
2024-01-27T03:46:05.108Z,70.80
2024-01-27T03:47:05.087Z,70.90
2024-01-27T03:48:05.253Z,70.90
2024-01-27T03:49:05.202Z,70.90
2024-01-27T03:50:05.112Z,70.80
2024-01-27T03:51:05.073Z,70.80
2024-01-27T03:52:05.030Z,70.80
2024-01-27T03:53:05.078Z,70.80
2024-01-27T03:54:05.051Z,70.70
2024-01-27T03:55:05.025Z,70.80
2024-01-27T03:56:04.997Z,70.80
2024-01-27T03:57:05.002Z,70.56
2024-01-27T03:58:04.975Z,70.67
2024-01-27T03:59:04.972Z,70.56
2024-01-27T04:00:04.975Z,70.59
2024-01-27T04:01:04.964Z,70.56
2024-01-27T04:02:04.950Z,70.67
2024-01-27T04:03:05.011Z,70.49
2024-01-27T04:04:04.939Z,70.46
2024-01-27T04:05:04.917Z,70.56
2024-01-27T04:06:04.913Z,70.56
2024-01-27T04:07:04.984Z,70.56
2024-01-27T04:08:04.865Z,70.56
2024-01-27T04:09:04.917Z,70.56
2024-01-27T04:10:04.880Z,70.70
2024-01-27T04:11:04.819Z,70.70
2024-01-27T04:12:04.806Z,70.70
2024-01-27T04:13:04.786Z,70.80
2024-01-27T04:14:04.819Z,70.70
2024-01-27T04:15:04.825Z,70.59
2024-01-27T04:16:04.748Z,70.36
2024-01-27T04:17:04.751Z,70.36
2024-01-27T04:18:06.302Z,70.25
2024-01-27T04:19:04.865Z,70.56
2024-01-27T04:20:04.808Z,70.67
2024-01-27T04:21:04.709Z,70.56
2024-01-27T04:22:04.671Z,70.56
2024-01-27T04:23:04.691Z,70.56
2024-01-27T04:24:04.765Z,70.46
2024-01-27T04:25:04.677Z,70.46
2024-01-27T04:26:04.639Z,70.46
2024-01-27T04:27:04.652Z,70.56
2024-01-27T04:28:04.621Z,70.67
2024-01-27T04:29:04.590Z,70.67
2024-01-27T04:30:04.667Z,70.67
2024-01-27T04:31:04.597Z,70.67
2024-01-27T04:32:04.581Z,70.56
2024-01-27T04:33:04.614Z,70.56
2024-01-27T04:34:04.684Z,70.67
2024-01-27T04:35:04.560Z,70.67
2024-01-27T04:36:04.646Z,70.67
2024-01-27T04:37:04.506Z,70.76
2024-01-27T04:38:04.485Z,70.87
2024-01-27T04:39:04.581Z,70.87
2024-01-27T04:40:04.479Z,70.97
2024-01-27T04:41:04.476Z,71.22
2024-01-27T04:42:04.505Z,71.32
2024-01-27T04:43:04.432Z,71.42
2024-01-27T04:44:04.416Z,71.53
2024-01-27T04:45:04.523Z,71.53
2024-01-27T04:46:04.431Z,71.53
2024-01-27T04:47:04.393Z,71.73
2024-01-27T04:48:04.566Z,71.73
2024-01-27T04:49:04.482Z,71.73
2024-01-27T04:50:04.570Z,71.73
2024-01-27T04:51:04.409Z,71.73
2024-01-27T04:52:04.329Z,71.73
2024-01-27T04:53:04.371Z,71.84
2024-01-27T04:54:04.320Z,72.05
2024-01-27T04:55:04.343Z,72.25
2024-01-27T04:56:04.300Z,72.25
2024-01-27T04:57:04.441Z,72.25
2024-01-27T04:58:04.327Z,72.36
2024-01-27T04:59:04.280Z,72.25
2024-01-27T05:00:04.287Z,72.25
2024-01-27T05:01:04.276Z,72.25
2024-01-27T05:02:04.228Z,72.15
2024-01-27T05:03:04.434Z,72.36
2024-01-27T05:04:04.377Z,72.36
2024-01-27T05:05:04.270Z,72.36
2024-01-27T05:06:04.248Z,72.46
2024-01-27T05:07:04.420Z,72.46
2024-01-27T05:08:04.178Z,72.36
2024-01-27T05:09:04.171Z,72.36
2024-01-27T05:10:04.139Z,72.56
2024-01-27T05:11:04.150Z,72.56
2024-01-27T05:12:04.182Z,72.60
2024-01-27T05:13:04.119Z,72.70
2024-01-27T05:14:04.081Z,72.80
2024-01-27T05:15:04.098Z,72.70
2024-01-27T05:16:04.075Z,72.60
2024-01-27T05:17:04.081Z,72.49
2024-01-27T05:18:04.107Z,72.56
2024-01-27T05:19:04.162Z,72.60
2024-01-27T05:20:04.096Z,72.60
2024-01-27T05:21:04.007Z,72.60
2024-01-27T05:22:04.005Z,72.70
2024-01-27T05:23:04.021Z,72.80
2024-01-27T05:24:04.088Z,72.70
2024-01-27T05:25:03.982Z,72.70
2024-01-27T05:26:03.998Z,72.80
2024-01-27T05:27:03.963Z,72.91
2024-01-27T05:28:03.957Z,73.01
2024-01-27T05:29:03.967Z,73.01
2024-01-27T05:30:03.983Z,72.91
2024-01-27T05:31:03.901Z,73.01
2024-01-27T05:32:03.918Z,73.11
2024-01-27T05:33:04.134Z,73.15
2024-01-27T05:34:04.036Z,73.36
2024-01-27T05:35:03.887Z,73.46
2024-01-27T05:36:03.884Z,73.46
2024-01-27T05:37:03.877Z,73.46
2024-01-27T05:38:03.835Z,73.46
2024-01-27T05:39:03.817Z,73.46
2024-01-27T05:40:03.812Z,73.32
2024-01-27T05:41:03.763Z,73.36
2024-01-27T05:42:03.841Z,73.46
2024-01-27T05:43:03.761Z,73.57
2024-01-27T05:44:03.761Z,73.67
2024-01-27T05:45:03.765Z,73.77
2024-01-27T05:46:03.746Z,73.77
2024-01-27T05:47:03.704Z,73.67
2024-01-27T05:48:03.975Z,73.46
2024-01-27T05:49:03.749Z,73.46
2024-01-27T05:50:03.691Z,73.57
2024-01-27T05:51:03.673Z,73.53
2024-01-27T05:52:03.686Z,73.53
2024-01-27T05:53:03.635Z,73.43
2024-01-27T05:54:03.685Z,73.43
2024-01-27T05:55:03.619Z,73.32
2024-01-27T05:56:03.586Z,73.32
2024-01-27T05:57:03.622Z,73.22
2024-01-27T05:58:03.617Z,73.01
2024-01-27T05:59:03.555Z,73.01
2024-01-27T06:00:03.596Z,73.01
2024-01-27T06:01:03.563Z,72.91
2024-01-27T06:02:03.536Z,73.11
2024-01-27T06:03:03.654Z,73.32
2024-01-27T06:04:03.739Z,73.32
2024-01-27T06:05:03.508Z,73.43
2024-01-27T06:06:03.565Z,73.43
2024-01-27T06:07:03.563Z,73.67
2024-01-27T06:08:03.445Z,73.74
2024-01-27T06:09:03.503Z,73.77
2024-01-27T06:10:03.438Z,73.77
2024-01-27T06:11:04.769Z,73.77
2024-01-27T06:12:03.462Z,73.88
2024-01-27T06:13:03.383Z,73.88
2024-01-27T06:14:03.381Z,73.98
2024-01-27T06:15:03.459Z,73.98
2024-01-27T06:16:03.337Z,74.08
2024-01-27T06:17:03.355Z,74.08
2024-01-27T06:18:03.596Z,74.19
2024-01-27T06:19:03.450Z,74.29
2024-01-27T06:20:03.528Z,74.40
2024-01-27T06:21:03.387Z,74.50
2024-01-27T06:22:05.614Z,74.60
2024-01-27T06:23:03.288Z,74.60
2024-01-27T06:24:03.261Z,74.71
2024-01-27T06:25:03.279Z,74.91
2024-01-27T06:26:03.254Z,74.81
2024-01-27T06:27:03.356Z,74.91
2024-01-27T06:28:03.243Z,75.02
2024-01-27T06:29:03.220Z,75.15
2024-01-27T06:30:03.310Z,75.26
2024-01-27T06:31:03.196Z,75.26
2024-01-27T06:32:03.165Z,75.26
2024-01-27T06:33:03.331Z,75.36
2024-01-27T06:34:03.221Z,75.46
2024-01-27T06:35:03.206Z,75.57
2024-01-27T06:36:03.164Z,75.46
2024-01-27T06:37:03.114Z,75.36
2024-01-27T06:38:03.104Z,75.46
2024-01-27T06:39:03.135Z,75.46
2024-01-27T06:40:03.077Z,75.46
2024-01-27T06:41:03.056Z,75.43
2024-01-27T06:42:03.106Z,75.36
2024-01-27T06:43:04.538Z,75.36
2024-01-27T06:44:03.090Z,75.26
2024-01-27T06:45:03.124Z,75.36
2024-01-27T06:46:03.051Z,75.33
2024-01-27T06:47:03.011Z,75.12
2024-01-27T06:48:03.110Z,75.12
2024-01-27T06:49:03.125Z,75.02
2024-01-27T06:50:03.098Z,75.02
2024-01-27T06:51:03.004Z,75.02
2024-01-27T06:52:02.952Z,74.81
2024-01-27T06:53:02.970Z,74.91
2024-01-27T06:54:02.936Z,74.81
2024-01-27T06:55:02.934Z,74.81
2024-01-27T06:56:02.927Z,74.91
2024-01-27T06:57:02.930Z,74.91
2024-01-27T06:58:02.886Z,74.91
2024-01-27T06:59:02.860Z,74.91
2024-01-27T07:00:02.957Z,74.91
2024-01-27T07:01:02.949Z,74.91
2024-01-27T07:02:02.852Z,74.91
2024-01-27T07:03:02.830Z,74.81
2024-01-27T07:04:02.878Z,74.81
2024-01-27T07:05:02.813Z,74.81
2024-01-27T07:06:02.848Z,74.81
2024-01-27T07:07:02.789Z,74.81
2024-01-27T07:08:02.796Z,74.71
2024-01-27T07:09:02.746Z,74.71
2024-01-27T07:10:02.761Z,74.71
2024-01-27T07:11:02.705Z,74.81
2024-01-27T07:12:02.706Z,74.81
2024-01-27T07:13:02.729Z,74.91
2024-01-27T07:14:02.696Z,74.91
2024-01-27T07:15:02.748Z,74.91
2024-01-27T07:16:02.713Z,74.91
2024-01-27T07:17:02.653Z,74.81
2024-01-27T07:18:02.840Z,74.71
2024-01-27T07:19:02.671Z,74.71
2024-01-27T07:20:02.686Z,74.71
2024-01-27T07:21:03.357Z,74.67
2024-01-27T07:22:02.608Z,74.71
2024-01-27T07:23:02.596Z,74.81
2024-01-27T07:24:02.581Z,74.67
2024-01-27T07:25:02.579Z,74.71
2024-01-27T07:26:02.546Z,74.71
2024-01-27T07:27:02.540Z,74.77
2024-01-27T07:28:02.595Z,74.77
2024-01-27T07:29:02.639Z,74.67
2024-01-27T07:30:02.516Z,74.67
2024-01-27T07:31:02.467Z,74.81
2024-01-27T07:32:02.460Z,74.91
2024-01-27T07:33:02.601Z,74.91
2024-01-27T07:34:02.636Z,74.77
2024-01-27T07:35:02.495Z,74.77
2024-01-27T07:36:02.416Z,74.46
2024-01-27T07:37:02.403Z,74.36
2024-01-27T07:38:02.464Z,74.36
2024-01-27T07:39:02.482Z,74.36
2024-01-27T07:40:02.409Z,74.26
2024-01-27T07:41:02.345Z,74.15
2024-01-27T07:42:02.376Z,74.26
2024-01-27T07:43:02.383Z,74.26
2024-01-27T07:44:02.328Z,74.26
2024-01-27T07:45:02.413Z,74.26
2024-01-27T07:46:02.332Z,74.11
2024-01-27T07:47:02.301Z,74.26
2024-01-27T07:48:02.679Z,74.26
2024-01-27T07:49:02.369Z,74.26
2024-01-27T07:50:02.262Z,74.26
2024-01-27T07:51:02.279Z,74.26
2024-01-27T07:52:02.228Z,74.22
2024-01-27T07:53:02.256Z,74.11
2024-01-27T07:54:02.242Z,74.11
2024-01-27T07:55:02.181Z,74.11
2024-01-27T07:56:03.600Z,74.11
2024-01-27T07:57:02.209Z,74.22
2024-01-27T07:58:02.191Z,74.11
2024-01-27T07:59:02.161Z,74.11
2024-01-27T08:00:02.294Z,74.11
2024-01-27T08:01:02.158Z,74.11
2024-01-27T08:02:02.132Z,74.11
2024-01-27T08:03:02.212Z,74.11
2024-01-27T08:04:02.312Z,74.22
2024-01-27T08:05:02.077Z,74.22
2024-01-27T08:06:02.080Z,74.32
2024-01-27T08:07:02.164Z,74.32
2024-01-27T08:08:02.094Z,74.22
2024-01-27T08:09:02.068Z,74.11
2024-01-27T08:10:02.024Z,74.11
2024-01-27T08:11:02.039Z,74.11
2024-01-27T08:12:02.067Z,74.22
2024-01-27T08:13:02.040Z,74.22
2024-01-27T08:14:01.981Z,74.11
2024-01-27T08:15:02.101Z,74.11
2024-01-27T08:16:01.964Z,74.11
2024-01-27T08:17:01.929Z,73.98
2024-01-27T08:18:02.046Z,73.98
2024-01-27T08:19:02.061Z,73.98
2024-01-27T08:20:02.062Z,73.98
2024-01-27T08:21:01.945Z,73.77
2024-01-27T08:22:01.887Z,73.77
2024-01-27T08:23:04.072Z,73.67
2024-01-27T08:24:01.905Z,73.67
2024-01-27T08:25:01.861Z,73.77
2024-01-27T08:26:01.843Z,73.67
2024-01-27T08:27:01.923Z,73.57
2024-01-27T08:28:01.839Z,73.46
2024-01-27T08:29:01.798Z,73.46
2024-01-27T08:30:01.908Z,73.22
2024-01-27T08:31:01.774Z,73.11
2024-01-27T08:32:01.810Z,73.22
2024-01-27T08:33:01.957Z,73.11
2024-01-27T08:34:01.857Z,73.01
2024-01-27T08:35:01.782Z,73.11
2024-01-27T08:36:01.737Z,72.91
2024-01-27T08:37:01.710Z,72.91
2024-01-27T08:38:01.677Z,73.01
2024-01-27T08:39:01.771Z,73.01
2024-01-27T08:40:01.708Z,73.01
2024-01-27T08:41:01.659Z,72.88
2024-01-27T08:42:01.709Z,72.77
2024-01-27T08:43:01.642Z,72.67
2024-01-27T08:44:01.612Z,72.56
2024-01-27T08:45:01.677Z,72.56
2024-01-27T08:46:01.605Z,72.56
2024-01-27T08:47:03.280Z,72.36
2024-01-27T08:48:01.719Z,72.25
2024-01-27T08:49:01.852Z,72.05
2024-01-27T08:50:01.621Z,72.05
2024-01-27T08:51:01.620Z,72.05
2024-01-27T08:52:01.519Z,72.02
2024-01-27T08:53:01.538Z,72.12
2024-01-27T08:54:01.510Z,72.12
2024-01-27T08:55:01.529Z,72.02
2024-01-27T08:56:01.538Z,71.81
2024-01-27T08:57:01.560Z,71.81
2024-01-27T08:58:01.463Z,71.91
2024-01-27T08:59:01.467Z,71.81
2024-01-27T09:00:01.511Z,71.81
2024-01-27T09:01:01.566Z,71.91
2024-01-27T09:02:01.442Z,71.91
2024-01-27T09:03:01.500Z,71.91
2024-01-27T09:04:01.442Z,71.81
2024-01-27T09:05:01.479Z,71.70
2024-01-27T09:06:01.565Z,71.70
2024-01-27T09:07:01.417Z,71.67
2024-01-27T09:08:01.378Z,71.67
2024-01-27T09:09:01.341Z,71.57
2024-01-27T09:10:01.306Z,71.47
2024-01-27T09:11:01.331Z,71.47
2024-01-27T09:12:01.390Z,71.47
2024-01-27T09:13:01.306Z,71.47
2024-01-27T09:14:01.281Z,71.36
2024-01-27T09:15:01.334Z,71.43
2024-01-27T09:16:01.253Z,71.33
2024-01-27T09:17:01.303Z,71.12
2024-01-27T09:18:01.284Z,71.12
2024-01-27T09:19:01.335Z,71.12
2024-01-27T09:20:01.538Z,71.12
2024-01-27T09:21:01.220Z,70.92
2024-01-27T09:22:01.201Z,70.81
2024-01-27T09:23:01.174Z,70.92
2024-01-27T09:24:01.169Z,70.92
2024-01-27T09:25:01.147Z,70.81
2024-01-27T09:26:01.147Z,70.81
2024-01-27T09:27:01.245Z,70.92
2024-01-27T09:28:01.124Z,70.78
2024-01-27T09:29:01.091Z,70.78
2024-01-27T09:30:01.129Z,70.57
2024-01-27T09:31:01.124Z,70.57
2024-01-27T09:32:01.122Z,70.57
2024-01-27T09:33:01.267Z,70.57
2024-01-27T09:34:01.252Z,70.06
2024-01-27T09:35:01.100Z,70.16
2024-01-27T09:36:01.057Z,70.26
2024-01-27T09:37:01.054Z,70.26
2024-01-27T09:38:01.006Z,70.26
2024-01-27T09:39:01.017Z,70.23
2024-01-27T09:40:01.025Z,70.03
2024-01-27T09:41:00.966Z,69.82
2024-01-27T09:42:01.036Z,69.71
2024-01-27T09:43:01.034Z,69.71
2024-01-27T09:44:00.936Z,69.71
2024-01-27T09:45:01.003Z,69.48
2024-01-27T09:46:00.927Z,69.17
2024-01-27T09:47:00.886Z,69.06
2024-01-27T09:48:01.141Z,68.93
2024-01-27T09:49:01.118Z,68.82
2024-01-27T09:50:00.921Z,68.59
2024-01-27T09:51:00.922Z,67.83
2024-01-27T09:52:00.835Z,66.16
2024-01-27T09:53:00.830Z,63.91
2024-01-27T09:54:00.855Z,61.77
2024-01-27T09:55:00.794Z,59.97
2024-01-27T09:56:00.778Z,58.72
2024-01-27T09:57:00.860Z,57.97
2024-01-27T09:58:00.756Z,57.33
2024-01-27T09:59:00.774Z,56.48
2024-01-27T10:00:00.826Z,56.25
2024-01-27T10:01:00.806Z,55.62
2024-01-27T10:02:00.755Z,54.80
2024-01-27T10:03:00.734Z,55.23
2024-01-27T10:04:00.851Z,55.56
2024-01-27T10:05:00.658Z,55.54
2024-01-27T10:06:00.723Z,55.33
2024-01-27T10:07:00.686Z,55.13
2024-01-27T10:08:00.661Z,54.59
2024-01-27T10:09:00.728Z,54.39
2024-01-27T10:10:00.632Z,54.08
2024-01-27T10:11:00.604Z,54.59
2024-01-27T10:12:00.615Z,54.67
2024-01-27T10:13:00.582Z,53.95
2024-01-27T10:14:00.589Z,54.03
2024-01-27T10:15:00.629Z,53.64
2024-01-27T10:16:00.571Z,53.98
2024-01-27T10:17:00.539Z,54.28
2024-01-27T10:18:00.602Z,54.87
2024-01-27T10:19:00.558Z,57.00
2024-01-27T10:20:00.611Z,58.72
2024-01-27T10:21:00.547Z,60.19
2024-01-27T10:22:00.490Z,60.93
2024-01-27T10:23:00.464Z,61.68
2024-01-27T10:24:00.509Z,61.76
2024-01-27T10:25:00.484Z,61.76
2024-01-27T10:26:00.448Z,61.79
2024-01-27T10:27:00.471Z,61.99
2024-01-27T10:28:00.403Z,62.43
2024-01-27T10:29:00.427Z,62.63
2024-01-27T10:30:00.513Z,62.63
2024-01-27T10:31:00.400Z,62.95
2024-01-27T10:32:02.369Z,63.35
2024-01-27T10:33:00.503Z,62.74
2024-01-27T10:34:00.789Z,62.09
2024-01-27T10:35:00.386Z,61.11
2024-01-27T10:36:00.373Z,59.82
2024-01-27T10:37:00.289Z,58.67
2024-01-27T10:38:00.533Z,57.59
2024-01-27T10:39:00.325Z,56.95
2024-01-27T10:40:00.285Z,56.10
2024-01-27T10:41:00.259Z,55.49
2024-01-27T10:42:00.288Z,55.69
2024-01-27T10:43:00.245Z,55.49
2024-01-27T10:44:00.229Z,55.15
2024-01-27T10:45:00.331Z,54.51
2024-01-27T10:46:00.214Z,54.39
2024-01-27T10:47:00.213Z,53.85
2024-01-27T10:48:00.329Z,53.44
2024-01-27T10:49:00.213Z,53.64
2024-01-27T10:50:00.283Z,53.75
2024-01-27T10:51:00.165Z,53.34
2024-01-27T10:52:00.112Z,53.34
2024-01-27T10:53:00.235Z,53.11
2024-01-27T10:54:00.240Z,53.11
2024-01-27T10:55:00.158Z,53.21
2024-01-27T10:56:00.162Z,52.55
2024-01-27T10:57:00.490Z,51.30
2024-01-27T10:58:00.062Z,51.12
2024-01-27T10:59:00.094Z,52.06
2024-01-27T11:00:00.236Z,51.86
2024-01-27T11:01:00.073Z,51.98
2024-01-27T11:02:00.039Z,52.50
2024-01-27T11:03:00.070Z,51.98
2024-01-27T11:04:00.103Z,52.29
2024-01-27T11:05:00.051Z,52.93
2024-01-27T11:06:00.184Z,53.13
2024-01-27T11:06:59.955Z,52.91
2024-01-27T11:07:59.978Z,52.17
2024-01-27T11:08:59.939Z,51.35
2024-01-27T11:09:59.953Z,52.19
2024-01-27T11:10:59.925Z,52.19
2024-01-27T11:11:59.954Z,52.39
2024-01-27T11:12:59.905Z,52.47
2024-01-27T11:13:59.882Z,51.84
2024-01-27T11:14:59.999Z,51.63
2024-01-27T11:15:59.876Z,51.22
2024-01-27T11:16:59.891Z,51.12
2024-01-27T11:17:59.883Z,51.40
2024-01-27T11:18:59.964Z,50.87
2024-01-27T11:19:59.833Z,50.23
2024-01-27T11:20:59.840Z,50.13
2024-01-27T11:21:59.829Z,49.90
2024-01-27T11:22:59.766Z,49.19
2024-01-27T11:23:59.772Z,49.52
2024-01-27T11:24:59.760Z,50.26
2024-01-27T11:25:59.736Z,50.15
2024-01-27T11:26:59.784Z,50.15
2024-01-27T11:27:59.734Z,50.03
2024-01-27T11:28:59.713Z,49.29
2024-01-27T11:29:59.724Z,49.52
2024-01-27T11:30:59.683Z,49.85
2024-01-27T11:31:59.718Z,49.73
2024-01-27T11:32:59.777Z,49.98
2024-01-27T11:33:59.814Z,50.15
2024-01-27T11:34:59.711Z,49.85
2024-01-27T11:35:59.699Z,50.15
2024-01-27T11:36:59.633Z,49.83
2024-01-27T11:37:59.632Z,48.99
2024-01-27T11:38:59.613Z,48.86
2024-01-27T11:39:59.588Z,48.13
2024-01-27T11:40:59.570Z,47.72
2024-01-27T11:41:59.590Z,47.42
2024-01-27T11:42:59.535Z,47.72
2024-01-27T11:43:59.557Z,47.27
2024-01-27T11:44:59.560Z,46.76
2024-01-27T11:45:59.495Z,46.64
2024-01-27T11:46:59.524Z,46.44
2024-01-27T11:47:59.542Z,46.44
2024-01-27T11:48:59.636Z,46.03
2024-01-27T11:49:59.588Z,46.11
2024-01-27T11:50:59.551Z,45.48
2024-01-27T11:51:59.426Z,44.56
2024-01-27T11:52:59.431Z,44.36
2024-01-27T11:53:59.474Z,44.77
2024-01-27T11:54:59.490Z,44.87
2024-01-27T11:55:59.418Z,44.97
2024-01-27T11:56:59.428Z,44.65
2024-01-27T11:57:59.401Z,44.85
2024-01-27T11:58:59.364Z,44.16
2024-01-27T11:59:59.411Z,44.06
2024-01-27T12:00:59.581Z,44.40
2024-01-27T12:01:59.358Z,45.48
2024-01-27T12:02:59.380Z,46.93
2024-01-27T12:03:59.378Z,46.50
2024-01-27T12:04:59.453Z,46.60
2024-01-27T12:05:59.342Z,46.70
2024-01-27T12:06:59.410Z,46.48
2024-01-27T12:07:59.259Z,46.07
2024-01-27T12:08:59.309Z,45.95
2024-01-27T12:09:59.245Z,45.87
2024-01-27T12:10:59.225Z,46.52
2024-01-27T12:11:59.253Z,46.83
2024-01-27T12:12:59.185Z,47.13
2024-01-27T12:13:59.170Z,47.77
2024-01-27T12:14:59.192Z,47.44
2024-01-27T12:15:59.215Z,47.46
2024-01-27T12:16:59.136Z,47.87
2024-01-27T12:17:59.173Z,47.56
2024-01-27T12:18:59.230Z,47.77
2024-01-27T12:19:59.179Z,48.40
2024-01-27T12:20:59.179Z,48.63
2024-01-27T12:21:59.120Z,49.38
2024-01-27T12:22:59.099Z,48.96
2024-01-27T12:24:00.940Z,49.37
2024-01-27T12:24:59.068Z,49.26
2024-01-27T12:25:59.040Z,48.96
2024-01-27T12:26:59.054Z,48.93
2024-01-27T12:27:59.942Z,48.50
2024-01-27T12:28:59.357Z,48.07
2024-01-27T12:29:59.035Z,47.74
2024-01-27T12:30:59.000Z,47.64
2024-01-27T12:31:58.979Z,47.34
2024-01-27T12:32:59.075Z,47.17
2024-01-27T12:33:59.070Z,47.91
2024-01-27T12:34:59.114Z,48.34
2024-01-27T12:35:58.972Z,48.32
2024-01-27T12:36:58.947Z,47.91
2024-01-27T12:37:58.893Z,48.14
2024-01-27T12:38:59.033Z,48.39
2024-01-27T12:39:58.916Z,49.21
2024-01-27T12:40:58.869Z,49.10
2024-01-27T12:41:58.927Z,49.00
2024-01-27T12:42:58.847Z,49.30
2024-01-27T12:43:58.832Z,49.62
2024-01-27T12:44:58.868Z,49.30
2024-01-27T12:45:58.851Z,49.10
2024-01-27T12:46:58.804Z,49.10
2024-01-27T12:47:59.059Z,48.80
2024-01-27T12:48:58.933Z,49.10
2024-01-27T12:49:58.994Z,48.57
2024-01-27T12:50:58.818Z,48.14
2024-01-27T12:51:58.769Z,48.14